createdAt,value
2022-08-17T04:12:49.513Z,99813.66
2022-08-17T04:15:52.025Z,99814.44
2022-08-17T04:18:54.201Z,99817.00
2022-08-17T04:25:02.486Z,99831.22
2022-08-17T04:28:09.434Z,99832.34
2022-08-17T04:31:18.233Z,99833.78
2022-08-17T04:34:21.082Z,99825.47
2022-08-17T04:37:23.490Z,99826.47
2022-08-17T04:40:46.176Z,99825.44
2022-08-17T04:43:50.100Z,99827.28
2022-08-17T04:46:52.466Z,99830.28
2022-08-17T04:49:54.525Z,99833.09
2022-08-17T04:52:57.219Z,99832.00
2022-08-17T04:55:59.534Z,99841.53
2022-08-17T04:59:06.486Z,99843.59
2022-08-17T05:02:08.579Z,99850.09
2022-08-17T05:05:10.995Z,99850.28
2022-08-17T05:08:17.063Z,99851.56
2022-08-17T05:11:19.526Z,99858.19
2022-08-17T05:14:22.207Z,99852.59
2022-08-17T05:17:35.601Z,99850.44
2022-08-17T05:20:39.721Z,99860.50
2022-08-17T05:23:43.476Z,99862.72
2022-08-17T05:26:46.021Z,99857.00
2022-08-17T05:29:48.377Z,99854.13
2022-08-17T05:33:14.942Z,99850.94
2022-08-17T05:36:37.889Z,99851.75
2022-08-17T05:39:39.548Z,99846.81
2022-08-17T05:42:42.253Z,99847.38
2022-08-17T05:46:15.115Z,99850.59
2022-08-17T05:49:25.126Z,99851.97
2022-08-17T05:52:50.090Z,99854.91
2022-08-17T05:56:09.098Z,99855.53
2022-08-17T05:59:40.063Z,99861.28
2022-08-17T06:03:11.678Z,99858.16
2022-08-17T06:06:32.326Z,99858.41
2022-08-17T06:09:57.062Z,99849.97
2022-08-17T06:13:22.606Z,99857.53
2022-08-17T06:16:34.462Z,99858.91
2022-08-17T06:19:45.672Z,99858.47
2022-08-17T06:22:50.781Z,99861.53
2022-08-17T06:25:58.597Z,99871.63
2022-08-17T06:29:18.653Z,99868.53
2022-08-17T06:32:21.677Z,99874.25
2022-08-17T06:35:34.566Z,99870.03
2022-08-17T06:39:07.904Z,99868.50
2022-08-17T06:43:02.752Z,99871.53
2022-08-17T06:45:57.430Z,99872.56
2022-08-17T06:49:08.438Z,99874.62
2022-08-17T06:52:45.932Z,99874.09
2022-08-17T06:56:12.816Z,99874.91
2022-08-17T06:59:19.618Z,99881.38
2022-08-17T07:02:59.499Z,99874.34
2022-08-17T07:06:08.582Z,99875.81
2022-08-17T07:09:34.745Z,99870.22
2022-08-17T07:12:40.487Z,99878.56
2022-08-17T07:15:43.170Z,99871.94
2022-08-17T07:18:46.659Z,99867.06
2022-08-17T07:22:15.701Z,99870.87
2022-08-17T07:25:18.610Z,99866.66
2022-08-17T07:28:23.482Z,99865.78
2022-08-17T07:31:26.585Z,99865.84
2022-08-17T07:34:29.206Z,99866.28
2022-08-17T07:37:33.249Z,99867.41
2022-08-17T07:40:38.852Z,99868.44
2022-08-17T07:43:41.135Z,99862.38
2022-08-17T07:47:10.944Z,99867.56
2022-08-17T07:50:28.889Z,99864.34
2022-08-17T07:53:31.891Z,99863.25
2022-08-17T07:56:42.092Z,99863.91
2022-08-17T08:00:18.320Z,99868.91
2022-08-17T08:03:27.141Z,99873.91
2022-08-17T08:06:30.583Z,99867.12
2022-08-17T08:09:45.115Z,99868.50
2022-08-17T08:12:48.869Z,99862.22
2022-08-17T08:16:23.790Z,99866.81
2022-08-17T08:19:27.871Z,99867.25
2022-08-17T08:22:41.070Z,99865.81
2022-08-17T08:26:08.574Z,99864.19
2022-08-17T08:29:20.270Z,99862.66
2022-08-17T08:32:39.347Z,99860.34
2022-08-17T08:35:58.942Z,99867.78
2022-08-17T08:39:06.813Z,99861.81
2022-08-17T08:42:24.163Z,99861.06
2022-08-17T08:45:38.417Z,99857.72
2022-08-17T08:48:58.044Z,99854.53
2022-08-17T08:52:03.344Z,99853.03
2022-08-17T08:55:26.434Z,99853.06
2022-08-17T08:59:03.012Z,99846.56
2022-08-17T09:02:34.946Z,99846.66
2022-08-17T09:06:06.065Z,99842.94
2022-08-17T09:10:08.205Z,99838.22
2022-08-17T09:13:19.614Z,99848.78
2022-08-17T09:16:36.750Z,99850.59
2022-08-17T09:19:53.516Z,99842.25
2022-08-17T09:23:08.470Z,99845.91
2022-08-17T09:26:25.832Z,99854.72
2022-08-17T09:29:34.824Z,99845.41
2022-08-17T09:32:41.405Z,99852.19
2022-08-17T09:35:49.588Z,99841.37
2022-08-17T09:39:03.896Z,99840.34
2022-08-17T09:42:19.934Z,99840.31
2022-08-17T09:45:34.126Z,99840.59
2022-08-17T09:48:43.526Z,99828.44
2022-08-17T09:51:55.490Z,99822.31
2022-08-17T09:54:59.994Z,99824.50
2022-08-17T09:58:29.262Z,99829.62
2022-08-17T10:01:52.479Z,99826.66
2022-08-17T10:05:24.666Z,99828.22
2022-08-17T10:08:44.355Z,99823.88
2022-08-17T10:12:20.026Z,99825.28
2022-08-17T10:15:55.834Z,99825.94
2022-08-17T10:19:13.755Z,99825.72
